Time;durP1;ratioP1;P1;durP2;ratioP2;P2;SDS_P1;SDS_P2;PMS_P1;PMS_P2;Temp;Humidity;BMP_temperature;BMP_pressure;BME280_temperature;BME280_humidity;BME280_pressure;Samples;Min_cycle;Max_cycle;Signal;HPM_P1;HPM_P2
2021/12/03 00:00:47;;;;;;;7.38;1.05;;;9.30;91.20;;;;;;5038849;28;20088;-77
2021/12/03 00:03:13;;;;;;;44.20;14.60;;;9.20;91.50;;;;;;5040823;28;20370;-79
2021/12/03 00:05:39;;;;;;;7.15;2.13;;;9.10;92.10;;;;;;5041021;28;20761;-78
2021/12/03 00:08:05;;;;;;;1.23;0.65;;;9.10;92.10;;;;;;5041657;28;20053;-78
2021/12/03 00:10:31;;;;;;;5.00;2.20;;;9.20;90.70;;;;;;5045158;28;20021;-78
2021/12/03 00:13:00;;;;;;;2.35;1.10;;;9.20;91.40;;;;;;5042834;28;20322;-79
2021/12/03 00:15:27;;;;;;;1.13;0.47;;;9.10;92.20;;;;;;5044852;28;20025;-78
2021/12/03 00:17:54;;;;;;;2.75;0.50;;;9.10;92.10;;;;;;5043898;28;20036;-77
2021/12/03 00:20:21;;;;;;;3.00;0.80;;;9.10;91.50;;;;;;5044548;28;20017;-78
2021/12/03 00:22:49;;;;;;;1.30;0.70;;;9.10;91.70;;;;;;5043235;28;20041;-77
2021/12/03 00:25:15;;;;;;;5.68;1.75;;;9.10;92.60;;;;;;5044023;28;20049;-78
2021/12/03 00:27:41;;;;;;;0.63;0.47;;;9.10;91.50;;;;;;5042941;28;20018;-78
2021/12/03 00:30:11;;;;;;;7.05;3.10;;;9.10;91.70;;;;;;5039077;28;20036;-78
2021/12/03 00:32:36;;;;;;;1.27;0.75;;;9.60;92.20;;;;;;5039320;28;20298;-78
2021/12/03 00:35:03;;;;;;;9.73;4.07;;;9.10;91.50;;;;;;5039511;28;20032;-78
2021/12/03 00:37:29;;;;;;;5.40;0.75;;;9.10;91.80;;;;;;5039126;28;20019;-78
2021/12/03 00:39:55;;;;;;;44.45;23.02;;;9.10;91.60;;;;;;5039502;28;20325;-78
2021/12/03 00:42:22;;;;;;;6.20;2.00;;;9.10;92.10;;;;;;5038280;28;20466;-78
2021/12/03 00:44:53;;;;;;;20.98;10.85;;;8.80;92.50;;;;;;5041746;28;20021;-78
2021/12/03 00:47:19;;;;;;;4.93;1.30;;;9.10;91.90;;;;;;5041431;28;20028;-79
2021/12/03 00:49:45;;;;;;;2.17;0.88;;;9.10;91.90;;;;;;5042592;28;20435;-78
2021/12/03 00:52:11;;;;;;;23.40;12.43;;;9.10;91.30;;;;;;5045023;28;20020;-77
2021/12/03 00:54:37;;;;;;;21.05;11.45;;;9.10;92.40;;;;;;5045414;28;20083;-77
2021/12/03 00:57:03;;;;;;;3.03;1.20;;;9.10;93.10;;;;;;5045086;28;20021;-78
2021/12/03 00:59:29;;;;;;;41.22;23.73;;;9.00;92.90;;;;;;5043535;28;20492;-78
2021/12/03 01:01:55;;;;;;;39.72;21.42;;;9.00;93.20;;;;;;5041018;28;20036;-78
2021/12/03 01:04:21;;;;;;;15.02;8.25;;;8.90;93.40;;;;;;5039608;28;20021;-78
2021/12/03 01:06:47;;;;;;;2.55;1.00;;;8.90;93.30;;;;;;5039559;28;20475;-78
2021/12/03 01:09:13;;;;;;;13.05;6.97;;;8.90;92.90;;;;;;5039636;28;20472;-78
2021/12/03 01:11:39;;;;;;;25.50;10.32;;;8.90;93.20;;;;;;5039251;28;20458;-78
2021/12/03 01:14:05;;;;;;;52.67;22.75;;;8.90;93.50;;;;;;5041537;28;20025;-78
2021/12/03 01:16:32;;;;;;;23.95;9.60;;;8.90;94.00;;;;;;5040960;28;20029;-78
2021/12/03 01:18:58;;;;;;;6.97;2.20;;;8.90;93.90;;;;;;5040532;28;20017;-79
2021/12/03 01:21:25;;;;;;;5.75;2.28;;;8.90;93.10;;;;;;5039979;28;20033;-79
2021/12/03 01:23:52;;;;;;;3.95;1.77;;;8.90;94.60;;;;;;5040135;28;20040;-78
2021/12/03 01:26:20;;;;;;;6.40;2.10;;;8.90;93.90;;;;;;5040419;28;20049;-78
2021/12/03 01:28:46;;;;;;;1.98;1.00;;;8.90;93.40;;;;;;5039438;28;20187;-78
2021/12/03 01:31:14;;;;;;;36.03;20.77;;;8.90;93.50;;;;;;5040820;28;20025;-78
2021/12/03 01:33:40;;;;;;;17.52;9.43;;;8.90;94.70;;;;;;5041518;28;20104;-78
2021/12/03 01:36:06;;;;;;;28.25;18.05;;;8.80;95.00;;;;;;5041311;28;20027;-78
2021/12/03 01:38:32;;;;;;;11.27;5.93;;;8.70;95.50;;;;;;5042442;28;20383;-78
2021/12/03 01:40:58;;;;;;;3.50;1.55;;;9.30;95.80;;;;;;5040841;28;20110;-78
2021/12/03 01:43:25;;;;;;;3.78;0.60;;;8.60;94.90;;;;;;5040606;28;20523;-78
2021/12/03 01:45:58;;;;;;;3.90;2.65;;;8.60;94.90;;;;;;5038590;28;20036;-78
2021/12/03 01:48:25;;;;;;;1.55;0.50;;;8.60;95.30;;;;;;5039653;28;20025;-77
2021/12/03 01:50:50;;;;;;;3.03;0.50;;;8.50;95.60;;;;;;5040805;28;20608;-77
2021/12/03 01:53:20;;;;;;;1.10;0.73;;;8.50;96.10;;;;;;5042262;28;20029;-78
2021/12/03 01:55:47;;;;;;;11.63;5.32;;;8.50;95.90;;;;;;5040421;28;20028;-78
2021/12/03 01:58:14;;;;;;;11.82;6.20;;;8.40;96.00;;;;;;5040632;28;20534;-77
2021/12/03 02:00:45;;;;;;;21.13;10.27;;;8.40;96.40;;;;;;5041280;28;20778;-77
2021/12/03 02:03:14;;;;;;;51.03;25.10;;;8.40;96.60;;;;;;5043797;28;20025;-76
2021/12/03 02:05:43;;;;;;;7.93;3.70;;;8.30;96.90;;;;;;5044453;28;20049;-78
2021/12/03 02:08:09;;;;;;;39.53;19.88;;;8.30;97.00;;;;;;5043556;28;20348;-76
2021/12/03 02:10:36;;;;;;;19.05;10.27;;;8.30;97.30;;;;;;5041568;28;20029;-78
2021/12/03 02:13:03;;;;;;;3.78;2.90;;;8.20;97.50;;;;;;5042474;28;20240;-78
2021/12/03 02:15:29;;;;;;;3.10;1.60;;;8.20;97.60;;;;;;5041688;28;20060;-77
2021/12/03 02:17:54;;;;;;;2.58;1.30;;;8.10;97.60;;;;;;5041827;28;20064;-77
2021/12/03 02:20:21;;;;;;;3.15;0.70;;;8.20;97.70;;;;;;5041589;28;20224;-77
2021/12/03 02:22:47;;;;;;;1.95;1.20;;;8.20;97.20;;;;;;5042270;28;20032;-77
2021/12/03 02:25:20;;;;;;;4.00;2.15;;;8.20;97.30;;;;;;5041696;28;20325;-78
2021/12/03 02:27:47;;;;;;;1.75;1.20;;;8.10;97.90;;;;;;5041784;28;20017;-78
2021/12/03 02:30:12;;;;;;;3.58;1.00;;;8.10;98.20;;;;;;5040111;28;20104;-78
2021/12/03 02:32:38;;;;;;;2.75;1.40;;;8.10;98.40;;;;;;5042214;28;20109;-78
2021/12/03 02:35:05;;;;;;;3.40;1.17;;;8.00;98.60;;;;;;5041263;28;20025;-79
2021/12/03 02:37:31;;;;;;;1.25;0.80;;;8.00;98.80;;;;;;5040046;28;20025;-77
2021/12/03 02:39:56;;;;;;;2.13;1.10;;;7.90;98.80;;;;;;5040258;28;20290;-77
2021/12/03 02:42:22;;;;;;;3.85;1.30;;;8.00;98.90;;;;;;5041555;28;20120;-77
2021/12/03 02:44:48;;;;;;;2.78;1.15;;;7.90;99.30;;;;;;5041462;28;20301;-77
2021/12/03 02:47:14;;;;;;;6.00;1.20;;;7.90;99.20;;;;;;5043429;28;20032;-77
2021/12/03 02:49:42;;;;;;;3.05;1.20;;;7.90;99.50;;;;;;5043693;28;20504;-76
2021/12/03 02:52:09;;;;;;;3.53;1.17;;;7.90;99.70;;;;;;5043959;28;20036;-77
2021/12/03 02:54:35;;;;;;;4.70;1.65;;;7.80;99.90;;;;;;5044299;28;20052;-78
2021/12/03 02:57:03;;;;;;;4.57;1.60;;;7.70;99.90;;;;;;5044502;28;20033;-77
2021/12/03 02:59:32;;;;;;;4.32;2.00;;;7.70;99.90;;;;;;5043828;28;20152;-75
2021/12/03 03:01:58;;;;;;;3.28;1.50;;;7.70;99.90;;;;;;5044044;28;20037;-77
2021/12/03 03:04:23;;;;;;;5.68;1.85;;;7.70;99.90;;;;;;5043647;28;20021;-77
2021/12/03 03:06:49;;;;;;;8.75;2.50;;;7.60;99.90;;;;;;5044259;28;20127;-77
2021/12/03 03:09:15;;;;;;;6.50;1.70;;;7.60;99.90;;;;;;5044218;28;20020;-77
2021/12/03 03:11:41;;;;;;;5.43;1.80;;;7.50;99.90;;;;;;5046216;28;20585;-77
2021/12/03 03:14:06;;;;;;;4.10;1.60;;;7.50;99.90;;;;;;5046637;28;20040;-77
2021/12/03 03:16:34;;;;;;;5.10;2.00;;;7.60;99.90;;;;;;5047299;28;20099;-78
2021/12/03 03:19:08;;;;;;;6.95;2.22;;;7.60;99.90;;;;;;5048012;28;20514;-78
2021/12/03 03:21:34;;;;;;;6.30;2.50;;;7.60;99.90;;;;;;5047711;28;20088;-77
2021/12/03 03:24:00;;;;;;;7.20;3.35;;;7.60;99.90;;;;;;5048921;28;20032;-77
2021/12/03 03:26:26;;;;;;;5.72;3.30;;;7.60;99.90;;;;;;5048588;28;20017;-77
2021/12/03 03:28:55;;;;;;;7.45;3.28;;;7.60;99.90;;;;;;5048593;28;20464;-79
2021/12/03 03:31:21;;;;;;;6.32;2.72;;;7.60;99.90;;;;;;5049106;28;20020;-77
2021/12/03 03:33:47;;;;;;;5.72;3.40;;;7.60;99.90;;;;;;5049407;28;20094;-79
2021/12/03 03:36:12;;;;;;;7.65;2.95;;;7.70;99.90;;;;;;5050582;28;20021;-78
2021/12/03 03:38:38;;;;;;;6.20;2.92;;;7.70;99.90;;;;;;5050789;28;20025;-78
2021/12/03 03:41:04;;;;;;;5.78;2.90;;;7.70;99.90;;;;;;5049939;28;20021;-77
2021/12/03 03:43:30;;;;;;;8.45;3.85;;;7.70;99.90;;;;;;5049830;28;20028;-78
2021/12/03 03:45:55;;;;;;;4.90;2.70;;;7.70;99.90;;;;;;5052278;28;20581;-77
2021/12/03 03:48:23;;;;;;;4.38;2.30;;;7.70;99.90;;;;;;5051881;28;20033;-77
2021/12/03 03:50:50;;;;;;;5.15;2.80;;;7.70;99.90;;;;;;5052296;28;20039;-76
2021/12/03 03:53:16;;;;;;;5.97;2.47;;;7.70;99.90;;;;;;5050409;28;20452;-77
2021/12/03 03:55:41;;;;;;;5.05;2.33;;;7.70;99.90;;;;;;5052379;28;20295;-77
2021/12/03 03:58:08;;;;;;;8.20;3.50;;;7.60;99.90;;;;;;5051034;28;20048;-77
2021/12/03 04:00:40;;;;;;;5.95;2.60;;;7.60;99.90;;;;;;5053262;28;20440;-77
2021/12/03 04:03:07;;;;;;;5.30;3.08;;;7.60;99.90;;;;;;5050108;28;20104;-77
2021/12/03 04:05:33;;;;;;;4.70;2.35;;;7.60;99.90;;;;;;5054341;28;20102;-76
2021/12/03 04:07:59;;;;;;;4.07;2.28;;;7.50;99.90;;;;;;5052666;28;20564;-77
2021/12/03 04:10:24;;;;;;;3.60;2.25;;;7.50;99.90;;;;;;5051053;28;20044;-78
2021/12/03 04:12:50;;;;;;;3.17;2.08;;;7.40;99.90;;;;;;5051119;28;20135;-76
2021/12/03 04:15:16;;;;;;;2.33;1.75;;;7.40;99.90;;;;;;5044109;28;20135;-76
2021/12/03 04:17:42;;;;;;;3.30;1.50;;;7.40;99.90;;;;;;5039819;28;20024;-76
2021/12/03 04:20:11;;;;;;;3.25;1.80;;;7.40;99.90;;;;;;5039768;28;20064;-77
2021/12/03 04:22:37;;;;;;;3.65;2.00;;;7.30;99.90;;;;;;5040735;28;20307;-77
2021/12/03 04:25:06;;;;;;;2.63;1.60;;;7.30;99.90;;;;;;5040787;28;20013;-77
2021/12/03 04:27:31;;;;;;;2.80;1.20;;;7.30;99.90;;;;;;5039872;28;20574;-77
2021/12/03 04:29:59;;;;;;;3.45;1.30;;;7.30;99.90;;;;;;5041554;28;20056;-77
2021/12/03 04:32:25;;;;;;;1.77;1.20;;;7.20;99.90;;;;;;5041516;28;20379;-77
2021/12/03 04:34:52;;;;;;;3.58;1.40;;;7.20;99.90;;;;;;5041111;28;20329;-77
2021/12/03 04:37:18;;;;;;;4.00;1.63;;;7.20;99.90;;;;;;5041162;28;20021;-77
2021/12/03 04:39:44;;;;;;;3.33;1.33;;;7.20;99.90;;;;;;5041004;28;20014;-76
2021/12/03 04:42:10;;;;;;;1.48;1.20;;;7.20;99.90;;;;;;5041318;28;20063;-77
2021/12/03 04:44:37;;;;;;;3.10;1.52;;;7.10;99.90;;;;;;5041031;28;20025;-77
2021/12/03 04:47:04;;;;;;;2.33;1.30;;;7.10;99.90;;;;;;5040785;28;20384;-76
2021/12/03 04:49:30;;;;;;;5.53;1.38;;;7.20;99.90;;;;;;5039431;28;20103;-75
2021/12/03 04:51:56;;;;;;;2.67;1.23;;;7.10;99.90;;;;;;5041141;28;20025;-76
2021/12/03 04:54:22;;;;;;;2.17;1.30;;;7.10;99.90;;;;;;5040341;28;20569;-78
2021/12/03 04:56:48;;;;;;;3.65;1.27;;;7.00;99.90;;;;;;5040316;28;20063;-77
2021/12/03 04:59:14;;;;;;;2.00;1.35;;;7.00;99.90;;;;;;5039772;28;20065;-76
2021/12/03 05:01:40;;;;;;;1.25;1.10;;;7.10;99.90;;;;;;5038753;28;20055;-77
2021/12/03 05:04:06;;;;;;;2.17;1.30;;;7.00;99.90;;;;;;5040410;28;20020;-78
2021/12/03 05:06:52;;;;;;;1.50;0.98;;;7.10;99.90;;;;;;5040177;28;20029;-77
2021/12/03 05:09:18;;;;;;;3.70;1.30;;;7.00;99.90;;;;;;5039591;28;20075;-76
2021/12/03 05:11:43;;;;;;;2.17;1.10;;;7.00;99.90;;;;;;5040481;28;20017;-76
2021/12/03 05:14:09;;;;;;;2.00;1.30;;;6.90;99.90;;;;;;5040096;28;20025;-76
2021/12/03 05:16:35;;;;;;;1.52;1.17;;;6.90;99.90;;;;;;5040225;28;20029;-76
2021/12/03 05:19:00;;;;;;;1.60;1.33;;;6.90;99.90;;;;;;5040427;28;20021;-76
2021/12/03 05:21:28;;;;;;;2.22;1.48;;;6.90;99.90;;;;;;5040469;28;20485;-77
2021/12/03 05:23:53;;;;;;;1.92;1.50;;;6.80;99.90;;;;;;5039718;28;20464;-77
2021/12/03 05:26:19;;;;;;;3.38;1.80;;;6.70;99.90;;;;;;5040157;28;20075;-77
2021/12/03 05:28:45;;;;;;;1.90;1.40;;;6.40;99.70;;;;;;5039759;28;20236;-76
2021/12/03 05:31:11;;;;;;;2.28;1.33;;;6.00;99.00;;;;;;5038442;28;20086;-76
2021/12/03 05:33:37;;;;;;;2.28;1.30;;;5.50;99.40;;;;;;5039476;28;20032;-77
2021/12/03 05:36:03;;;;;;;2.00;1.33;;;5.10;99.40;;;;;;5038013;28;20087;-77
2021/12/03 05:38:28;;;;;;;1.63;1.48;;;4.80;99.70;;;;;;5039385;28;20029;-76
2021/12/03 05:40:56;;;;;;;4.40;1.40;;;4.50;99.90;;;;;;5039370;28;20029;-77
2021/12/03 05:43:21;;;;;;;1.80;1.10;;;4.40;99.90;;;;;;5039659;28;20055;-76
2021/12/03 05:45:47;;;;;;;1.60;1.40;;;4.20;99.90;;;;;;5040060;28;20471;-76
2021/12/03 05:48:15;;;;;;;2.67;1.40;;;4.10;99.90;;;;;;5040156;28;20091;-77
2021/12/03 05:50:42;;;;;;;1.88;1.20;;;4.00;99.90;;;;;;5038280;28;20033;-78
2021/12/03 05:53:08;;;;;;;1.38;1.00;;;3.80;99.90;;;;;;5040872;28;20051;-77
2021/12/03 05:55:34;;;;;;;2.20;1.20;;;4.00;99.90;;;;;;5039736;28;20021;-77
2021/12/03 05:58:00;;;;;;;1.10;1.00;;;3.60;99.90;;;;;;5039702;28;20048;-77
2021/12/03 06:00:29;;;;;;;2.35;1.27;;;3.50;99.90;;;;;;5040261;28;20392;-76
2021/12/03 06:02:57;;;;;;;1.52;1.15;;;3.50;99.90;;;;;;5039806;28;20120;-77
2021/12/03 06:05:25;;;;;;;1.45;1.17;;;3.50;99.90;;;;;;5041074;28;20054;-77
2021/12/03 06:07:50;;;;;;;0.82;0.77;;;3.40;99.90;;;;;;5041115;28;20052;-77
2021/12/03 06:10:17;;;;;;;2.80;1.88;;;3.30;99.90;;;;;;5040507;28;20646;-75
2021/12/03 06:12:43;;;;;;;3.17;1.67;;;3.30;99.90;;;;;;5040275;28;20021;-75
2021/12/03 06:15:10;;;;;;;7.30;3.67;;;3.10;99.90;;;;;;5043444;28;20626;-75
2021/12/03 06:17:35;;;;;;;4.43;2.50;;;3.10;99.90;;;;;;5040316;28;20021;-76
2021/12/03 06:20:02;;;;;;;2.83;1.48;;;2.90;99.90;;;;;;5040285;28;20220;-74
2021/12/03 06:22:28;;;;;;;3.30;1.80;;;2.80;99.90;;;;;;5040621;28;20122;-75
2021/12/03 06:24:54;;;;;;;3.42;2.00;;;3.10;99.90;;;;;;5039605;28;20055;-76
2021/12/03 06:27:20;;;;;;;3.42;2.08;;;2.60;99.90;;;;;;5042106;28;20260;-74
2021/12/03 06:29:46;;;;;;;2.15;1.50;;;2.50;99.90;;;;;;5041543;28;20066;-75
2021/12/03 06:32:11;;;;;;;2.85;1.80;;;2.30;99.90;;;;;;5041118;28;20328;-74
2021/12/03 06:34:38;;;;;;;3.15;1.80;;;2.30;99.90;;;;;;5041899;28;20058;-75
2021/12/03 06:37:04;;;;;;;3.42;2.28;;;2.20;99.90;;;;;;5040402;28;20033;-75
2021/12/03 06:39:30;;;;;;;3.65;1.90;;;2.10;99.90;;;;;;5041551;28;20071;-74
2021/12/03 06:41:56;;;;;;;5.18;2.17;;;2.10;99.90;;;;;;5043692;28;20080;-76
2021/12/03 06:44:23;;;;;;;4.03;2.17;;;2.10;99.90;;;;;;5043368;28;20544;-76
2021/12/03 06:46:49;;;;;;;3.42;2.40;;;2.10;99.90;;;;;;5043380;28;20023;-75
2021/12/03 06:49:14;;;;;;;5.90;3.00;;;2.00;99.90;;;;;;5041265;28;20127;-75
2021/12/03 06:51:43;;;;;;;6.65;3.10;;;2.00;99.90;;;;;;5042117;28;20045;-76
2021/12/03 06:54:10;;;;;;;4.18;2.67;;;2.00;99.90;;;;;;5043189;28;20504;-75
2021/12/03 06:56:48;;;;;;;4.32;2.50;;;2.00;99.90;;;;;;5042810;28;20025;-76
2021/12/03 06:59:15;;;;;;;4.70;2.85;;;2.00;99.90;;;;;;5046964;28;20049;-75
2021/12/03 07:01:42;;;;;;;8.77;3.33;;;1.90;99.90;;;;;;5047601;28;20530;-77
2021/12/03 07:04:08;;;;;;;4.32;3.17;;;1.90;99.90;;;;;;5049669;28;20025;-75
2021/12/03 07:06:33;;;;;;;4.03;2.65;;;1.90;99.90;;;;;;5047222;28;20120;-75
2021/12/03 07:08:59;;;;;;;4.03;2.42;;;1.90;99.90;;;;;;5046332;28;20237;-76
2021/12/03 07:11:25;;;;;;;3.20;2.70;;;1.90;99.90;;;;;;5045974;28;20076;-77
2021/12/03 07:13:51;;;;;;;6.55;2.92;;;1.90;99.90;;;;;;5049402;28;20199;-75
2021/12/03 07:16:16;;;;;;;7.07;3.65;;;2.50;99.90;;;;;;5053234;28;20070;-75
2021/12/03 07:18:45;;;;;;;4.80;2.22;;;2.00;99.90;;;;;;5050716;28;20021;-76
2021/12/03 07:21:11;;;;;;;4.20;2.83;;;1.90;99.90;;;;;;5057088;28;20029;-76
2021/12/03 07:23:37;;;;;;;5.60;3.22;;;2.00;99.90;;;;;;5056300;28;20028;-76
2021/12/03 07:26:03;;;;;;;4.53;3.42;;;1.90;99.90;;;;;;5057727;28;20093;-78
2021/12/03 07:28:30;;;;;;;6.05;4.40;;;2.10;99.90;;;;;;5059992;28;20064;-76
2021/12/03 07:30:56;;;;;;;5.88;3.85;;;3.70;99.90;;;;;;5050943;28;20021;-76
2021/12/03 07:33:22;;;;;;;10.23;4.65;;;5.10;99.90;;;;;;5051064;28;20051;-77
2021/12/03 07:35:48;;;;;;;8.07;4.65;;;1.90;99.90;;;;;;5054052;28;20425;-77
2021/12/03 07:38:17;;;;;;;9.10;5.25;;;1.90;99.90;;;;;;5039473;28;20316;-76
2021/12/03 07:40:44;;;;;;;10.73;5.47;;;1.90;99.90;;;;;;5055108;28;20026;-77
2021/12/03 07:43:10;;;;;;;11.80;4.93;;;2.30;99.90;;;;;;5053567;28;20033;-77
2021/12/03 07:45:36;;;;;;;10.50;5.50;;;1.80;99.90;;;;;;5055356;28;20040;-76
2021/12/03 07:48:03;;;;;;;9.85;6.20;;;1.80;99.90;;;;;;5056592;28;20334;-76
2021/12/03 07:50:33;;;;;;;9.73;5.95;;;1.80;99.90;;;;;;5051897;28;20100;-76
2021/12/03 07:52:59;;;;;;;7.93;5.60;;;1.80;99.90;;;;;;5054798;28;20025;-76
2021/12/03 07:55:24;;;;;;;10.90;6.20;;;1.80;99.90;;;;;;5056202;28;20306;-77
2021/12/03 07:57:52;;;;;;;10.38;6.07;;;1.90;99.90;;;;;;5055627;28;20013;-78
2021/12/03 08:00:18;;;;;;;11.32;6.70;;;1.90;99.90;;;;;;5055272;28;20029;-77
2021/12/03 08:02:46;;;;;;;14.10;7.28;;;1.90;99.90;;;;;;5051826;28;20029;-80
2021/12/03 08:05:11;;;;;;;11.70;7.15;;;3.60;99.90;;;;;;5053055;28;20040;-76
2021/12/03 08:07:39;;;;;;;12.02;7.55;;;1.90;99.90;;;;;;5053653;28;20221;-75
2021/12/03 08:10:06;;;;;;;12.90;8.32;;;1.90;99.90;;;;;;5049108;28;20608;-76
2021/12/03 08:12:32;;;;;;;12.57;8.30;;;2.00;99.90;;;;;;5050234;28;20039;-77
2021/12/03 08:14:58;;;;;;;12.15;7.88;;;1.90;99.90;;;;;;5050235;28;20040;-75
2021/12/03 08:17:23;;;;;;;13.18;7.65;;;3.20;99.90;;;;;;5048903;28;20452;-75
2021/12/03 08:19:50;;;;;;;13.20;7.95;;;3.20;99.90;;;;;;5051913;28;20029;-78
2021/12/03 08:22:16;;;;;;;19.52;9.63;;;2.10;99.90;;;;;;5052106;28;20037;-76
2021/12/03 08:24:42;;;;;;;18.88;10.20;;;2.10;99.90;;;;;;5049803;28;20017;-76
2021/12/03 08:27:07;;;;;;;16.33;10.02;;;2.10;99.90;;;;;;5046333;28;20511;-76
2021/12/03 08:29:34;;;;;;;18.50;10.00;;;2.10;99.90;;;;;;5044211;28;20356;-76
2021/12/03 08:32:00;;;;;;;18.13;9.40;;;2.10;99.90;;;;;;5040531;28;20033;-76
2021/12/03 08:34:26;;;;;;;18.33;10.63;;;2.20;99.90;;;;;;5042954;28;20021;-76
2021/12/03 08:36:51;;;;;;;17.15;10.45;;;3.00;99.90;;;;;;5041605;28;20017;-76
2021/12/03 08:39:19;;;;;;;15.88;9.60;;;2.30;99.90;;;;;;5043773;28;20640;-76
2021/12/03 08:41:45;;;;;;;17.25;9.93;;;2.40;99.90;;;;;;5044175;28;20032;-76
2021/12/03 08:44:10;;;;;;;17.00;10.38;;;2.50;99.90;;;;;;5041615;28;20120;-75
2021/12/03 08:46:38;;;;;;;21.08;10.85;;;2.50;99.90;;;;;;5051338;28;20048;-75
2021/12/03 08:52:24;;;;;;;19.92;11.05;;;2.70;99.90;;;;;;5042733;28;20032;-75
2021/12/03 08:57:17;;;;;;;23.80;12.82;;;2.80;99.90;;;;;;5038652;28;20507;-77
2021/12/03 08:59:43;;;;;;;19.90;11.63;;;2.90;99.90;;;;;;5041035;28;20048;-77
2021/12/03 09:02:10;;;;;;;24.15;13.75;;;2.90;99.90;;;;;;5043384;28;20102;-78
2021/12/03 09:04:36;;;;;;;29.02;14.55;;;2.90;99.90;;;;;;5046789;28;20025;-76
2021/12/03 09:07:04;;;;;;;24.08;13.38;;;3.00;99.90;;;;;;5038369;28;20110;-75
2021/12/03 09:09:30;;;;;;;24.73;14.18;;;3.10;99.90;;;;;;5044104;28;20025;-77
2021/12/03 09:11:56;;;;;;;23.23;14.32;;;3.10;99.90;;;;;;5042539;28;20036;-76
2021/12/03 09:14:33;;;;;;;21.45;12.13;;;3.00;99.90;;;;;;5039973;28;20167;-76
2021/12/03 09:19:50;;;;;;;20.60;11.40;;;3.00;99.90;;;;;;5041158;28;20039;-75
2021/12/03 09:23:01;;;;;;;19.00;11.35;;;3.10;99.80;;;;;;5045062;28;20044;-76
2021/12/03 09:25:08;;;;;;;20.45;12.77;;;3.10;99.70;;;;;;5037901;28;20044;-76
2021/12/03 09:27:34;;;;;;;43.50;19.95;;;3.10;99.90;;;;;;5040320;28;20037;-76
2021/12/03 09:29:59;;;;;;;37.97;20.80;;;3.10;99.90;;;;;;5039655;28;20025;-75
2021/12/03 09:32:30;;;;;;;40.95;21.85;;;3.20;99.90;;;;;;5038964;28;20604;-76
2021/12/03 09:34:55;;;;;;;52.38;27.40;;;2.80;99.70;;;;;;5040499;28;20373;-76
2021/12/03 09:37:21;;;;;;;50.17;27.23;;;3.20;99.70;;;;;;5042105;28;20601;-77
2021/12/03 09:39:47;;;;;;;53.78;28.10;;;3.20;99.60;;;;;;5040319;28;20033;-76
2021/12/03 09:42:15;;;;;;;41.75;23.25;;;3.30;99.50;;;;;;5040853;28;20124;-76
2021/12/03 09:44:45;;;;;;;42.63;24.13;;;3.30;99.30;;;;;;5041132;28;20502;-76
2021/12/03 09:47:14;;;;;;;39.58;21.77;;;3.30;99.30;;;;;;5041091;28;20021;-76
2021/12/03 09:49:41;;;;;;;30.95;18.40;;;3.40;99.30;;;;;;5039221;28;20021;-76
2021/12/03 09:52:14;;;;;;;31.13;16.98;;;3.40;99.10;;;;;;5046879;28;20234;-79
2021/12/03 09:54:43;;;;;;;30.08;16.50;;;3.40;98.90;;;;;;5042337;28;20025;-77
2021/12/03 09:57:15;;;;;;;22.08;14.00;;;3.40;99.00;;;;;;5043028;28;20478;-78
2021/12/03 10:15:27;;;;;;;16.63;10.55;;;5.60;99.90;;;;;;5042275;28;20044;-78
2021/12/03 10:20:52;;;;;;;17.90;10.90;;;6.30;92.60;;;;;;5042945;28;20104;-77
2021/12/03 10:28:42;;;;;;;19.60;11.98;;;5.10;94.50;;;;;;5041843;28;20036;-76
2021/12/03 10:39:41;;;;;;;34.58;20.38;;;4.30;96.80;;;;;;5049767;28;20206;-77
2021/12/03 10:42:33;;;;;;;38.85;22.33;;;4.10;97.20;;;;;;5049052;28;20037;-76
2021/12/03 10:45:30;;;;;;;34.28;19.95;;;4.00;97.50;;;;;;5055715;28;20013;-77
2021/12/03 13:19:41;;;;;;;105.95;57.10;;;3.00;99.90;;;;;;5019901;28;20217;-77
2021/12/03 13:28:45;;;;;;;124.45;63.88;;;2.90;99.80;;;;;;5002831;28;20041;-76
2021/12/03 14:00:45;;;;;;;59.05;31.02;;;2.80;99.90;;;;;;4989921;28;20054;-77
2021/12/03 14:47:12;;;;;;;110.40;57.95;;;2.80;99.90;;;;;;4981407;28;20274;-77
2021/12/03 14:55:37;;;;;;;156.57;76.20;;;2.80;99.90;;;;;;4981069;28;20050;-77
2021/12/03 14:58:21;;;;;;;118.43;61.75;;;2.80;99.90;;;;;;4980929;28;20046;-77
2021/12/03 15:00:59;;;;;;;113.75;59.33;;;2.70;99.90;;;;;;4982435;28;20113;-77
2021/12/03 15:06:38;;;;;;;107.45;55.63;;;2.70;99.90;;;;;;4962981;28;20113;-77
2021/12/03 15:30:55;;;;;;;81.38;44.00;;;2.60;99.90;;;;;;4905123;29;20028;-76
2021/12/03 15:33:43;;;;;;;84.57;45.45;;;2.60;99.90;;;;;;4907125;29;20423;-76
2021/12/03 15:36:19;;;;;;;87.65;46.50;;;2.50;99.90;;;;;;4904156;29;20059;-78
2021/12/03 16:08:16;;;;;;;85.47;42.67;;;2.00;99.90;;;;;;5000008;28;20026;-76
2021/12/03 16:51:11;;;;;;;61.85;34.42;;;1.90;99.90;;;;;;4981749;28;20030;-78
2021/12/03 16:53:36;;;;;;;61.03;32.08;;;1.80;99.90;;;;;;4980619;28;20112;-77
2021/12/03 16:56:19;;;;;;;55.22;31.77;;;1.90;99.90;;;;;;4984831;28;20508;-75
2021/12/03 16:58:45;;;;;;;62.13;33.45;;;1.80;99.90;;;;;;4981349;28;20050;-76
2021/12/03 17:01:31;;;;;;;66.85;34.08;;;1.80;99.90;;;;;;4979677;28;20018;-76
2021/12/03 17:17:56;;;;;;;64.50;33.28;;;3.20;99.90;;;;;;5052924;28;20593;-76
2021/12/03 17:20:45;;;;;;;55.60;30.10;;;1.90;99.90;;;;;;5053597;28;20455;-76
2021/12/03 17:47:51;;;;;;;62.95;32.53;;;2.00;99.90;;;;;;5021802;28;20025;-76
2021/12/03 17:58:31;;;;;;;62.05;34.80;;;3.50;99.90;;;;;;5003387;28;20049;-76
2021/12/03 18:01:03;;;;;;;69.03;34.13;;;2.00;99.90;;;;;;5017569;28;20033;-77
2021/12/03 18:03:45;;;;;;;60.75;33.58;;;2.10;99.90;;;;;;5042550;28;20041;-77
2021/12/03 18:09:12;;;;;;;72.65;37.03;;;2.10;99.90;;;;;;5041222;28;20025;-78
2021/12/03 18:17:25;;;;;;;64.57;33.30;;;2.10;99.90;;;;;;5040528;28;20032;-75
2021/12/03 18:44:55;;;;;;;73.53;34.78;;;2.10;99.90;;;;;;5048349;28;20105;-76
2021/12/03 18:55:32;;;;;;;83.00;39.80;;;2.20;99.90;;;;;;5044380;28;20577;-76
2021/12/03 18:58:01;;;;;;;77.80;39.70;;;2.20;99.90;;;;;;5040286;28;20527;-75
2021/12/03 19:00:30;;;;;;;81.85;39.92;;;2.60;99.90;;;;;;5038480;28;20037;-77
2021/12/03 19:02:58;;;;;;;79.93;42.42;;;2.20;99.90;;;;;;5040367;28;20025;-76
2021/12/03 19:05:46;;;;;;;74.50;41.45;;;2.20;99.90;;;;;;5040239;28;20105;-75
2021/12/03 19:08:16;;;;;;;80.18;43.42;;;2.10;99.90;;;;;;5041276;28;20064;-76
2021/12/03 19:10:47;;;;;;;82.40;45.42;;;2.10;99.90;;;;;;5047304;28;20712;-76
2021/12/03 19:13:24;;;;;;;75.78;41.35;;;2.10;99.90;;;;;;5047480;28;20027;-77
2021/12/03 19:15:50;;;;;;;83.47;44.75;;;3.20;99.90;;;;;;5049164;28;20021;-77
2021/12/03 19:18:19;;;;;;;86.07;44.47;;;2.10;99.90;;;;;;5049584;28;20078;-77
2021/12/03 19:20:45;;;;;;;82.78;44.60;;;2.10;99.90;;;;;;5048168;28;20017;-78
2021/12/03 19:23:10;;;;;;;85.70;44.85;;;0.60;99.90;;;;;;5040781;28;20033;-78
2021/12/03 19:25:37;;;;;;;84.70;43.38;;;1.90;99.90;;;;;;5041535;28;20028;-77
2021/12/03 19:28:03;;;;;;;79.90;43.63;;;2.00;99.90;;;;;;5042605;28;20029;-79
2021/12/03 19:30:29;;;;;;;79.30;43.25;;;2.00;99.90;;;;;;5047293;28;20025;-75
2021/12/03 19:32:54;;;;;;;85.82;43.97;;;1.90;99.90;;;;;;5043694;28;20032;-77
2021/12/03 19:35:20;;;;;;;79.88;42.47;;;1.80;99.90;;;;;;5044150;28;20013;-78
2021/12/03 19:37:50;;;;;;;95.63;48.45;;;1.80;99.90;;;;;;5043745;28;20017;-77
2021/12/03 19:40:16;;;;;;;87.68;45.85;;;1.80;99.90;;;;;;5042979;28;20523;-75
2021/12/03 19:42:50;;;;;;;85.03;43.45;;;1.90;99.90;;;;;;5046449;28;20118;-77
2021/12/03 19:45:20;;;;;;;87.50;44.97;;;1.80;99.90;;;;;;5045866;28;20029;-75
2021/12/03 19:53:11;;;;;;;87.57;43.55;;;1.90;99.90;;;;;;5043844;28;20017;-75
2021/12/03 19:55:38;;;;;;;83.07;44.30;;;1.90;99.90;;;;;;5043818;28;20656;-77
2021/12/03 19:58:10;;;;;;;87.25;44.55;;;1.90;99.90;;;;;;5043629;28;20048;-77
2021/12/03 20:00:40;;;;;;;81.35;40.95;;;1.90;99.90;;;;;;5046027;28;20032;-79
2021/12/03 20:03:08;;;;;;;81.13;42.20;;;2.00;99.90;;;;;;5045974;28;20471;-76
2021/12/03 20:05:34;;;;;;;76.35;40.55;;;1.90;99.90;;;;;;5044484;28;20343;-81
2021/12/03 20:08:02;;;;;;;73.97;39.63;;;3.00;99.90;;;;;;5042723;28;20032;-76
2021/12/03 20:10:29;;;;;;;77.22;39.67;;;1.80;99.90;;;;;;5043895;28;20348;-75
2021/12/03 20:12:55;;;;;;;74.93;39.13;;;1.70;99.90;;;;;;5044935;28;20032;-77
2021/12/03 20:15:30;;;;;;;82.50;39.08;;;1.80;99.90;;;;;;5046085;28;20013;-76
2021/12/03 20:17:58;;;;;;;74.30;37.35;;;1.80;99.90;;;;;;5045559;28;20301;-76
2021/12/03 20:20:25;;;;;;;78.57;39.13;;;1.80;99.90;;;;;;5045520;28;20029;-75
2021/12/03 20:28:07;;;;;;;76.85;36.92;;;1.80;99.90;;;;;;5050242;28;20055;-76
2021/12/03 20:33:06;;;;;;;69.40;35.17;;;1.90;99.90;;;;;;5053644;28;20032;-77
2021/12/03 20:38:18;;;;;;;70.72;36.60;;;2.00;99.90;;;;;;5055892;28;20032;-76
2021/12/03 20:40:49;;;;;;;70.05;36.60;;;2.00;99.90;;;;;;5052916;28;20021;-77
2021/12/03 20:46:23;;;;;;;72.18;35.55;;;2.10;99.90;;;;;;5046153;28;20025;-77
2021/12/03 21:09:54;;;;;;;74.45;38.42;;;2.10;99.90;;;;;;5041406;28;20716;-77
2021/12/03 21:12:24;;;;;;;72.90;37.85;;;2.10;99.90;;;;;;5040336;28;20036;-78